Terminal Aerodrome Forecast
Issued by NWS Cleveland, OH

Home | Current Version | Previous Version | Graphics & Text | Print | Product List | Glossary On
Versions: 1 2 3 4 5 6 7 8 9 10 11 12 13 14 15 16 17 18 19 20 21 22 23 24 25 26 27 28
154
FTUS41 KCLE 270811 AAB
TAFCLE
TAF AMD
KCLE 270811Z 2708/2812 21008KT P6SM SCT012 BKN020
      TEMPO 2710/2713 4SM BR BKN012
     FM271500 24008KT P6SM BKN020
     FM271800 24008KT P6SM BKN050
     FM280000 VRB03KT P6SM OVC100
     FM280800 06005KT 5SM -RA BR OVC015=

USA.gov is the U.S. government's official web portal to all federal, state and local government web resources and services.